Terminal Aerodrome Forecast
Issued by NWS Albany, NY

Home | Current Version | Previous Version | Text Only | Print | Product List | Glossary On
Versions: 1 2 3 4 5 6 7 8 9 10 11 12 13 14
743
FTUS41 KALY 310539
TAFGFL
TAF
KGFL 310539Z 3106/0106 00000KT P6SM BKN250
     FM311300 18005KT P6SM SCT060 BKN150
     FM311800 20009KT P6SM SCT050 OVC100
     FM010000 22006KT P6SM VCSH BKN050 OVC090=

USA.gov is the U.S. government's official web portal to all federal, state and local government web resources and services.